Time;durP1;ratioP1;P1;durP2;ratioP2;P2;SDS_P1;SDS_P2;PMS_P1;PMS_P2;Temp;Humidity;BMP_temperature;BMP_pressure;BME280_temperature;BME280_humidity;BME280_pressure;Samples;Min_cycle;Max_cycle;Signal;HPM_P1;HPM_P2
2023/07/14 00:01:19;;;;;;;8.13;1.52;;;;;;;26.92;50.61;100858.97;5024888;28;20042;-75
2023/07/14 00:04:16;;;;;;;3.33;1.00;;;;;;;26.91;50.64;100851.78;5022831;28;20533;-75
2023/07/14 00:07:03;;;;;;;5.03;1.10;;;;;;;26.88;50.97;100850.63;5032623;28;20049;-75
2023/07/14 00:09:48;;;;;;;5.53;1.13;;;;;;;26.86;51.09;100850.25;5033719;28;20052;-75
2023/07/14 00:12:32;;;;;;;8.50;1.48;;;;;;;26.86;51.11;100855.03;5033716;28;20041;-75
2023/07/14 00:15:21;;;;;;;7.07;1.20;;;;;;;26.87;50.78;100854.63;5032038;28;20045;-75
2023/07/14 00:18:25;;;;;;;5.05;1.70;;;;;;;26.89;51.22;100862.56;5029389;28;20057;-75
2023/07/14 00:21:24;;;;;;;4.80;0.83;;;;;;;26.88;50.98;100861.00;5003961;28;20557;-75
2023/07/14 00:24:20;;;;;;;4.72;1.73;;;;;;;26.84;51.13;100858.25;5031976;28;20276;-76
2023/07/14 00:27:17;;;;;;;8.80;1.30;;;;;;;26.78;51.21;100865.50;5027957;28;20060;-75
2023/07/14 00:30:02;;;;;;;5.43;1.50;;;;;;;26.77;51.34;100872.28;5013372;28;20047;-75
2023/07/14 00:32:50;;;;;;;4.68;1.77;;;;;;;26.75;51.21;100875.53;5013330;28;20045;-75
2023/07/14 00:35:35;;;;;;;3.55;1.17;;;;;;;26.73;50.77;100871.56;5020969;28;20049;-75
2023/07/14 00:38:19;;;;;;;;;;;;;;;26.75;51.12;100878.31;5033020;28;20056;-75
2023/07/14 00:41:11;;;;;;;5.32;1.40;;;;;;;26.76;51.09;100874.31;5031585;28;19917;-75
2023/07/14 00:43:55;;;;;;;3.22;1.05;;;;;;;26.72;50.94;100867.19;5027901;28;20407;-75
2023/07/14 00:46:42;;;;;;;2.70;1.38;;;;;;;26.69;50.94;100877.19;5030450;28;20677;-75
2023/07/14 00:49:39;;;;;;;7.18;1.65;;;;;;;26.68;51.09;100872.03;5022953;28;20068;-75
2023/07/14 00:52:37;;;;;;;5.03;1.20;;;;;;;26.60;51.45;100871.38;5032859;28;20056;-75
2023/07/14 00:55:37;;;;;;;6.00;1.17;;;;;;;26.62;51.06;100870.91;5017169;28;20048;-75
2023/07/14 00:58:27;;;;;;;4.72;1.40;;;;;;;26.64;51.11;100865.72;5030160;28;20418;-75
2023/07/14 01:01:21;;;;;;;6.30;1.27;;;;;;;26.63;51.16;100856.56;5008757;28;20061;-75
2023/07/14 01:04:06;;;;;;;9.70;1.45;;;;;;;26.70;51.32;100850.09;5029009;28;20044;-75
2023/07/14 01:06:51;;;;;;;2.72;1.35;;;;;;;26.68;50.37;100849.72;5012771;28;20427;-75
2023/07/14 01:09:36;;;;;;;6.70;1.15;;;;;;;26.71;50.87;100844.09;5008303;28;20048;-75
2023/07/14 01:12:23;;;;;;;4.05;1.10;;;;;;;26.74;50.93;100845.25;5019094;28;20048;-75
2023/07/14 01:15:09;;;;;;;5.13;1.80;;;;;;;26.76;51.12;100845.63;5021053;28;20048;-75
2023/07/14 01:17:54;;;;;;;4.47;0.90;;;;;;;26.77;50.97;100850.75;5030800;28;20529;-75
2023/07/14 01:20:40;;;;;;;3.05;1.00;;;;;;;26.74;50.96;100850.81;5015515;28;20549;-75
2023/07/14 01:23:34;;;;;;;2.65;1.42;;;;;;;26.69;51.00;100852.09;5017226;28;20072;-75
2023/07/14 01:26:31;;;;;;;3.40;1.77;;;;;;;26.67;51.05;100854.50;5030441;28;20044;-75
2023/07/14 01:29:17;;;;;;;3.72;1.30;;;;;;;26.60;51.14;100854.63;5021948;28;20045;-75
2023/07/14 01:32:15;;;;;;;3.33;1.27;;;;;;;26.60;51.30;100853.84;5040182;28;20044;-75
2023/07/14 01:34:59;;;;;;;3.05;1.05;;;;;;;26.60;51.25;100853.84;5033707;28;20048;-75
2023/07/14 01:37:45;;;;;;;5.60;1.25;;;;;;;26.60;51.22;100846.25;5025312;28;20056;-75
2023/07/14 01:40:33;;;;;;;2.47;1.52;;;;;;;26.66;50.84;100857.72;5034224;28;20508;-75
2023/07/14 01:43:17;;;;;;;2.47;1.33;;;;;;;26.60;51.64;100849.03;5043312;28;20557;-75
2023/07/14 01:46:06;;;;;;;;;;;;;;;26.63;51.15;100841.81;5020936;28;20048;-75
2023/07/14 01:48:57;;;;;;;4.22;1.00;;;;;;;26.66;51.02;100847.38;5039491;28;20381;-75
2023/07/14 01:51:45;;;;;;;5.05;1.70;;;;;;;26.70;51.06;100852.88;5029904;28;20041;-75
2023/07/14 01:54:37;;;;;;;4.72;1.75;;;;;;;26.68;51.25;100850.50;5022551;28;20048;-75
2023/07/14 01:57:27;;;;;;;6.93;1.55;;;;;;;26.69;51.59;100856.88;5039766;28;20040;-75
2023/07/14 02:00:13;;;;;;;3.35;1.48;;;;;;;26.66;51.28;100850.16;5016773;28;20072;-75
2023/07/14 02:03:03;;;;;;;3.33;1.38;;;;;;;26.61;51.79;100852.63;5031880;28;20052;-75
2023/07/14 02:05:48;;;;;;;4.05;1.23;;;;;;;26.64;51.36;100854.56;5016919;28;20048;-75
2023/07/14 02:08:33;;;;;;;5.38;1.77;;;;;;;26.63;51.58;100855.75;5042713;28;20040;-75
2023/07/14 02:11:21;;;;;;;4.00;1.25;;;;;;;26.65;51.57;100853.34;5020384;28;20102;-75
2023/07/14 02:14:14;;;;;;;4.65;1.52;;;;;;;26.61;51.96;100855.41;5027822;28;20052;-75
2023/07/14 02:17:04;;;;;;;2.33;1.10;;;;;;;26.58;51.80;100857.03;5034024;28;20525;-75
2023/07/14 02:19:50;;;;;;;4.70;1.73;;;;;;;26.52;51.75;100852.34;5027491;28;20044;-75
2023/07/14 02:22:37;;;;;;;2.70;1.70;;;;;;;26.55;52.06;100855.09;5018143;28;20041;-75
2023/07/14 02:25:27;;;;;;;4.70;1.98;;;;;;;26.60;51.96;100862.19;5018570;28;20166;-75
2023/07/14 02:28:13;;;;;;;3.28;1.60;;;;;;;26.63;51.85;100864.13;5026072;28;20060;-75
2023/07/14 02:31:04;;;;;;;4.35;1.83;;;;;;;26.59;51.97;100864.19;5031938;28;20112;-75
2023/07/14 02:33:51;;;;;;;6.38;2.05;;;;;;;26.51;51.58;100873.88;5030268;28;20052;-75
2023/07/14 02:36:38;;;;;;;5.97;2.08;;;;;;;26.53;52.54;100877.03;5029677;28;20044;-75
2023/07/14 02:39:24;;;;;;;4.43;2.08;;;;;;;26.53;52.56;100871.47;5029630;28;20053;-75
2023/07/14 02:42:09;;;;;;;9.05;1.75;;;;;;;26.57;52.40;100879.75;5016188;28;20048;-75
2023/07/14 02:44:54;;;;;;;5.95;1.45;;;;;;;26.55;52.22;100871.03;5020151;28;20040;-75
2023/07/14 02:47:42;;;;;;;4.22;1.50;;;;;;;26.55;52.26;100880.22;5015559;28;20044;-75
2023/07/14 02:50:27;;;;;;;3.00;1.30;;;;;;;26.50;52.01;100877.88;5020502;28;20048;-75
2023/07/14 02:53:11;;;;;;;;;;;;;;;26.52;51.97;100880.22;5031592;28;20048;-75
2023/07/14 02:55:56;;;;;;;8.65;1.33;;;;;;;26.53;51.99;100876.25;5031429;28;19917;-75
2023/07/14 02:58:40;;;;;;;3.22;1.55;;;;;;;26.53;51.79;100881.81;5024675;28;20064;-75
2023/07/14 03:01:28;;;;;;;4.07;1.48;;;;;;;26.52;51.35;100885.81;5030905;28;20053;-75
2023/07/14 03:04:13;;;;;;;3.90;1.33;;;;;;;26.49;51.82;100876.31;5033787;28;20060;-76
2023/07/14 03:06:58;;;;;;;9.43;1.55;;;;;;;26.48;51.33;100879.50;5023491;28;20056;-75
2023/07/14 03:09:42;;;;;;;2.78;1.08;;;;;;;26.45;51.78;100874.78;5016348;28;20043;-75
2023/07/14 03:12:28;;;;;;;3.50;1.40;;;;;;;26.46;51.26;100870.78;5034588;28;20068;-75
2023/07/14 03:15:13;;;;;;;3.42;1.20;;;;;;;26.45;51.28;100870.00;5031162;28;20394;-75
2023/07/14 03:18:00;;;;;;;7.07;1.73;;;;;;;26.45;51.39;100860.81;5015184;28;20427;-75
2023/07/14 03:20:45;;;;;;;5.80;1.33;;;;;;;26.46;51.63;100870.78;5020877;28;20060;-75
2023/07/14 03:23:31;;;;;;;6.68;1.67;;;;;;;26.48;51.33;100868.34;5025185;28;20411;-76
2023/07/14 03:26:16;;;;;;;4.60;1.40;;;;;;;26.46;50.95;100860.41;5032595;28;20040;-75
2023/07/14 03:29:01;;;;;;;2.30;1.17;;;;;;;26.45;51.32;100864.41;5015257;28;20064;-75
2023/07/14 03:31:55;;;;;;;6.85;1.92;;;;;;;26.39;51.07;100858.50;5033165;23;20045;-86
2023/07/14 03:34:40;;;;;;;5.00;1.80;;;;;;;26.43;51.41;100866.81;5004864;28;20050;-79
2023/07/14 03:37:25;;;;;;;2.92;1.20;;;;;;;26.08;51.04;100870.03;5012710;28;20054;-77
2023/07/14 03:40:11;;;;;;;2.13;1.02;;;;;;;26.05;50.74;100871.69;5014653;28;20061;-77
2023/07/14 03:42:56;;;;;;;4.72;1.00;;;;;;;26.23;51.49;100874.25;5024781;28;20058;-78
2023/07/14 03:45:41;;;;;;;2.35;0.98;;;;;;;26.25;51.04;100866.28;4993944;28;20049;-79
2023/07/14 03:48:25;;;;;;;;;;;;;;;26.09;52.33;100875.22;4989706;28;20050;-78
2023/07/14 03:51:10;;;;;;;5.68;1.30;;;;;;;25.69;52.83;100876.88;4979945;28;19914;-79
2023/07/14 03:53:55;;;;;;;1.45;1.00;;;;;;;25.59;53.80;100874.19;4979174;28;20049;-78
2023/07/14 03:56:41;;;;;;;5.78;1.40;;;;;;;25.36;55.32;100877.56;4974070;28;20049;-79
2023/07/14 03:59:26;;;;;;;10.52;1.77;;;;;;;24.47;56.68;100880.19;4995188;28;20534;-80
2023/07/14 04:02:11;;;;;;;5.03;1.55;;;;;;;24.92;56.47;100886.69;4981537;28;20047;-80
2023/07/14 04:04:57;;;;;;;4.82;1.17;;;;;;;25.27;55.58;100886.41;4975270;28;20057;-80
2023/07/14 04:07:43;;;;;;;5.22;2.40;;;;;;;24.97;55.24;100886.25;4976646;28;20053;-78
2023/07/14 04:10:28;;;;;;;4.38;2.05;;;;;;;25.20;55.34;100888.44;5009701;28;20061;-78
2023/07/14 04:13:12;;;;;;;6.22;2.08;;;;;;;24.57;58.61;100882.91;4974622;28;20054;-78
2023/07/14 04:15:57;;;;;;;;;;;;;;;24.63;57.28;100886.06;4989377;28;20077;-78
2023/07/14 04:18:42;;;;;;;5.80;2.38;;;;;;;24.19;58.83;100881.09;4986901;28;19933;-79
2023/07/14 04:21:27;;;;;;;4.25;2.22;;;;;;;24.12;59.42;100878.34;5024302;28;20045;-79
2023/07/14 04:24:12;;;;;;;4.13;1.35;;;;;;;24.33;59.38;100883.81;4972062;28;20061;-78
2023/07/14 04:26:57;;;;;;;12.20;1.85;;;;;;;25.08;57.22;100889.75;4971533;28;20074;-79
2023/07/14 04:29:42;;;;;;;;;;;;;;;25.48;55.58;100893.75;4972625;28;20427;-79
2023/07/14 04:32:26;;;;;;;3.80;2.00;;;;;;;25.70;55.25;100897.16;4971018;28;19918;-78
2023/07/14 04:35:11;;;;;;;9.05;2.28;;;;;;;25.85;55.14;100895.81;4967692;28;20551;-79
2023/07/14 04:37:56;;;;;;;10.70;2.08;;;;;;;25.92;54.74;100887.34;4956288;28;20066;-78
2023/07/14 04:40:41;;;;;;;;;;;;;;;26.11;54.40;100888.75;4973232;28;20050;-79
2023/07/14 04:43:25;;;;;;;4.07;2.08;;;;;;;26.37;54.29;100888.81;4974745;28;20306;-80
2023/07/14 04:46:12;;;;;;;;;;;;;;;26.09;55.01;100886.38;4965708;28;20517;-78
2023/07/14 04:48:57;;;;;;;8.43;1.65;;;;;;;26.06;55.05;100887.19;4966520;28;19922;-79
2023/07/14 04:51:44;;;;;;;7.28;1.70;;;;;;;26.09;55.45;100889.16;4962947;28;20045;-78
2023/07/14 04:54:29;;;;;;;2.42;1.52;;;;;;;26.10;55.46;100887.16;4951082;28;20041;-77
2023/07/14 04:57:14;;;;;;;14.85;1.50;;;;;;;26.11;55.31;100897.88;4961970;28;20046;-79
2023/07/14 05:00:00;;;;;;;5.63;1.55;;;;;;;26.16;55.42;100891.06;4977742;28;20507;-78
2023/07/14 05:02:45;;;;;;;4.82;1.50;;;;;;;26.17;55.58;100887.84;4978690;28;20054;-77
2023/07/14 05:05:30;;;;;;;11.10;1.50;;;;;;;26.20;55.72;100884.25;4991815;28;20046;-79
2023/07/14 05:08:15;;;;;;;5.35;1.65;;;;;;;26.21;55.88;100896.94;4983558;28;20049;-78
2023/07/14 05:11:00;;;;;;;15.35;1.98;;;;;;;26.24;55.43;100900.94;4991454;28;20041;-78
2023/07/14 05:13:49;;;;;;;4.05;1.40;;;;;;;26.27;55.27;100891.72;4970827;28;20050;-80
2023/07/14 05:16:34;;;;;;;2.92;1.52;;;;;;;26.27;55.77;100895.31;4978311;28;20050;-79
2023/07/14 05:19:20;;;;;;;5.82;1.88;;;;;;;26.30;55.34;100893.69;4972491;28;20520;-79
2023/07/14 05:22:04;;;;;;;3.58;1.77;;;;;;;26.31;55.63;100892.50;4973082;28;20050;-80
2023/07/14 05:24:49;;;;;;;5.93;1.40;;;;;;;26.33;55.23;100896.44;4974327;28;20057;-78
2023/07/14 05:27:35;;;;;;;3.45;1.23;;;;;;;26.34;55.27;100889.66;4971510;28;20050;-79
2023/07/14 05:30:21;;;;;;;3.15;1.27;;;;;;;26.36;55.26;100892.78;4963310;28;20046;-78
2023/07/14 05:33:06;;;;;;;5.57;1.10;;;;;;;26.37;55.10;100891.59;4990954;28;20042;-78
2023/07/14 05:35:51;;;;;;;3.95;1.15;;;;;;;26.42;55.14;100900.69;5004740;28;20515;-77
2023/07/14 05:38:36;;;;;;;4.95;1.15;;;;;;;26.42;55.24;100903.47;4996354;28;20057;-77
2023/07/14 05:41:21;;;;;;;5.82;1.20;;;;;;;26.44;55.54;100901.09;4998127;28;20427;-78
2023/07/14 05:44:06;;;;;;;3.40;1.10;;;;;;;26.47;55.64;100905.81;5020007;28;20052;-80
2023/07/14 05:46:51;;;;;;;2.38;1.05;;;;;;;26.47;55.03;100912.19;5003357;28;20072;-78
2023/07/14 05:49:36;;;;;;;6.30;1.25;;;;;;;26.50;55.07;100910.56;5004346;28;20056;-80
2023/07/14 05:52:22;;;;;;;1.20;1.10;;;;;;;26.50;55.52;100913.34;5007879;28;20045;-78
2023/07/14 05:55:07;;;;;;;1.45;0.90;;;;;;;26.53;55.49;100904.13;5012047;28;20045;-78
2023/07/14 05:57:52;;;;;;;1.63;1.08;;;;;;;26.52;55.52;100905.34;4991798;28;20451;-79
2023/07/14 06:00:38;;;;;;;3.53;1.20;;;;;;;26.54;55.25;100894.56;5007473;28;20053;-78
2023/07/14 06:03:23;;;;;;;2.88;1.45;;;;;;;26.56;54.97;100894.94;5009489;28;20041;-77
2023/07/14 06:06:07;;;;;;;10.18;2.13;;;;;;;26.56;55.09;100898.53;4995566;28;20542;-78
2023/07/14 06:08:54;;;;;;;3.35;1.17;;;;;;;26.60;55.14;100895.69;4977525;28;20232;-77
2023/07/14 06:11:40;;;;;;;7.35;1.60;;;;;;;26.62;55.40;100896.03;4996874;28;20061;-77
2023/07/14 06:14:25;;;;;;;4.20;1.63;;;;;;;26.60;55.26;100892.88;4972591;28;20131;-79
2023/07/14 06:17:10;;;;;;;3.95;1.35;;;;;;;26.65;54.93;100892.41;4984236;28;20048;-78
2023/07/14 06:19:55;;;;;;;6.82;2.17;;;;;;;26.66;55.09;100894.81;5009622;28;20606;-77
2023/07/14 06:22:40;;;;;;;6.47;1.13;;;;;;;26.67;55.01;100896.34;5016401;28;20053;-79
2023/07/14 06:25:25;;;;;;;2.67;1.45;;;;;;;26.71;54.81;100899.13;5004270;28;20057;-77
2023/07/14 06:28:10;;;;;;;5.30;1.45;;;;;;;26.73;54.89;100885.50;5004001;28;20050;-79
2023/07/14 06:31:00;;;;;;;3.92;1.30;;;;;;;26.74;54.88;100889.88;5019105;28;20049;-80
2023/07/14 06:33:46;;;;;;;1.73;1.15;;;;;;;26.79;54.58;100898.56;5018660;28;20045;-78
2023/07/14 06:36:31;;;;;;;8.70;1.73;;;;;;;26.79;54.71;100895.00;5009325;28;20054;-78
2023/07/14 06:39:15;;;;;;;3.53;1.60;;;;;;;26.82;54.61;100897.72;4995215;28;20050;-78
2023/07/14 06:42:00;;;;;;;5.25;1.48;;;;;;;26.86;54.66;100905.28;4992975;28;20053;-78
2023/07/14 06:44:45;;;;;;;4.82;1.58;;;;;;;26.88;54.22;100908.44;5000621;28;20061;-79
2023/07/14 06:47:32;;;;;;;6.22;1.02;;;;;;;26.91;54.10;100907.63;5000442;28;20057;-77
2023/07/14 06:50:17;;;;;;;2.35;1.13;;;;;;;26.93;54.41;100900.38;5002313;28;20053;-78
2023/07/14 06:53:01;;;;;;;14.32;1.90;;;;;;;26.97;51.97;100906.69;4996807;28;20065;-78
2023/07/14 06:55:47;;;;;;;6.88;1.40;;;;;;;27.06;52.20;100909.75;4995527;28;20065;-78
2023/07/14 06:58:31;;;;;;;5.50;1.70;;;;;;;27.09;51.83;100908.91;5020978;28;20056;-78
2023/07/14 07:01:20;;;;;;;8.02;1.58;;;;;;;27.15;51.00;100903.63;4996910;28;20044;-78
2023/07/14 07:04:05;;;;;;;6.55;1.35;;;;;;;27.17;50.95;100904.78;5022251;28;20053;-79
2023/07/14 07:06:50;;;;;;;13.52;1.88;;;;;;;27.18;49.27;100919.53;5007615;28;20542;-77
2023/07/14 07:09:34;;;;;;;2.00;1.10;;;;;;;27.19;50.94;100916.31;5021428;28;20514;-77
2023/07/14 07:12:21;;;;;;;8.15;1.85;;;;;;;27.20;51.34;100917.13;5020748;28;20052;-79
2023/07/14 07:15:06;;;;;;;5.85;1.50;;;;;;;27.47;47.05;100905.88;5019955;28;20056;-78
2023/07/14 07:17:51;;;;;;;8.98;1.15;;;;;;;27.36;49.53;100914.44;5003640;28;20049;-77
2023/07/14 07:20:38;;;;;;;5.63;1.58;;;;;;;27.36;50.43;100919.25;5021635;28;20052;-78
2023/07/14 07:23:22;;;;;;;2.67;0.77;;;;;;;27.34;51.00;100916.06;5008567;28;20049;-77
2023/07/14 07:26:08;;;;;;;5.45;0.90;;;;;;;27.53;45.92;100920.97;5007146;28;20048;-78
2023/07/14 07:28:53;;;;;;;2.78;0.90;;;;;;;27.49;48.86;100914.63;5019973;28;20049;-80
2023/07/14 07:31:38;;;;;;;2.40;1.05;;;;;;;27.46;50.83;100909.91;5018161;28;20069;-79
2023/07/14 07:34:23;;;;;;;4.85;1.02;;;;;;;27.48;50.12;100910.28;5005411;28;20053;-78
2023/07/14 07:37:10;;;;;;;6.10;0.80;;;;;;;27.52;50.08;100909.00;5005532;28;20053;-77
2023/07/14 07:39:55;;;;;;;2.38;0.95;;;;;;;27.98;43.54;100910.94;5019390;28;20052;-78
2023/07/14 07:42:40;;;;;;;5.75;0.90;;;;;;;28.18;42.27;100910.97;5008922;28;20072;-78
2023/07/14 07:45:25;;;;;;;3.97;1.35;;;;;;;28.40;41.33;100908.50;5004764;28;20048;-78
2023/07/14 07:48:10;;;;;;;6.03;1.60;;;;;;;28.45;41.06;100917.16;4999602;28;20052;-77
2023/07/14 07:50:55;;;;;;;5.53;1.45;;;;;;;28.54;42.50;100921.41;5013851;28;20596;-77
2023/07/14 07:53:40;;;;;;;5.97;0.77;;;;;;;28.41;42.99;100924.84;4999175;28;20049;-77
2023/07/14 07:56:25;;;;;;;1.55;0.75;;;;;;;28.44;40.71;100926.00;4997763;28;20069;-79
2023/07/14 07:59:11;;;;;;;8.32;1.00;;;;;;;28.53;41.68;100929.00;4981409;28;20518;-79
2023/07/14 08:01:55;;;;;;;3.50;0.82;;;;;;;28.57;41.52;100928.91;4987243;28;20534;-78
2023/07/14 08:04:40;;;;;;;6.63;1.50;;;;;;;28.52;41.72;100924.63;4999750;28;20054;-77
2023/07/14 08:07:26;;;;;;;2.17;0.77;;;;;;;28.47;42.95;100922.34;4987334;28;20057;-77
2023/07/14 08:10:10;;;;;;;5.25;1.27;;;;;;;28.49;43.64;100917.09;4999363;28;20057;-78
2023/07/14 08:12:55;;;;;;;1.83;1.00;;;;;;;28.53;43.66;100917.03;4995623;28;20041;-77
2023/07/14 08:15:40;;;;;;;2.67;1.08;;;;;;;28.78;42.67;100918.06;5019311;28;20052;-77
2023/07/14 08:18:26;;;;;;;4.95;1.23;;;;;;;28.77;42.05;100910.91;5000709;28;20058;-78
2023/07/14 08:21:10;;;;;;;5.53;1.70;;;;;;;28.74;43.41;100920.16;5013003;28;20053;-78
2023/07/14 08:23:55;;;;;;;6.00;1.48;;;;;;;28.86;42.50;100927.06;4994573;28;20057;-78
2023/07/14 08:26:40;;;;;;;6.55;1.13;;;;;;;28.86;42.56;100921.47;4970367;28;20046;-77
2023/07/14 08:29:25;;;;;;;3.25;1.20;;;;;;;29.00;42.80;100926.78;4993025;28;20042;-77
2023/07/14 08:32:09;;;;;;;6.38;1.40;;;;;;;29.10;41.48;100931.31;5017361;28;20513;-78
2023/07/14 08:34:54;;;;;;;3.08;1.23;;;;;;;29.02;41.28;100931.91;4994251;28;20041;-77
2023/07/14 08:37:39;;;;;;;3.80;1.02;;;;;;;29.08;41.58;100921.78;5006672;28;20061;-77
2023/07/14 08:40:33;;;;;;;6.43;1.20;;;;;;;29.09;41.94;100928.94;4998831;28;20134;-77
2023/07/14 08:43:34;;;;;;;3.88;1.33;;;;;;;29.06;41.35;100938.22;5004795;28;20045;-78
2023/07/14 08:46:28;;;;;;;3.05;1.00;;;;;;;28.83;44.63;100934.34;4982969;28;20042;-78
2023/07/14 08:49:20;;;;;;;3.65;1.20;;;;;;;28.82;41.31;100935.56;4982802;28;20420;-77
2023/07/14 08:52:14;;;;;;;4.50;0.77;;;;;;;28.90;39.20;100927.81;4978700;28;20037;-77
2023/07/14 08:55:34;;;;;;;3.47;0.88;;;;;;;28.94;39.25;100927.72;5008865;28;20053;-76
2023/07/14 08:58:24;;;;;;;2.85;0.50;;;;;;;28.84;40.85;100927.53;4991138;28;20053;-77
2023/07/14 09:01:50;;;;;;;3.20;0.98;;;;;;;28.86;41.18;100922.28;5008278;28;20053;-76
2023/07/14 09:04:40;;;;;;;9.32;1.70;;;;;;;28.82;40.79;100921.56;4972768;28;20045;-75
2023/07/14 09:07:25;;;;;;;2.92;1.00;;;;;;;28.80;41.22;100918.41;5002127;28;20049;-76
2023/07/14 09:10:12;;;;;;;6.97;1.00;;;;;;;28.79;40.65;100918.88;4993719;28;20045;-77
2023/07/14 09:13:20;;;;;;;5.15;0.82;;;;;;;28.81;41.60;100922.78;4997785;28;20081;-76
2023/07/14 09:16:08;;;;;;;11.07;1.13;;;;;;;28.76;40.74;100914.91;4992364;28;20062;-76
2023/07/14 09:19:15;;;;;;;5.45;1.13;;;;;;;28.79;39.16;100916.84;4984924;28;20038;-79
2023/07/14 09:22:04;;;;;;;4.93;1.02;;;;;;;28.78;38.37;100908.88;5009957;28;20057;-76
2023/07/14 09:24:56;;;;;;;1.80;0.70;;;;;;;28.76;39.00;100909.31;4977180;28;20062;-76
2023/07/14 09:27:41;;;;;;;1.52;0.55;;;;;;;28.70;38.28;100904.66;4973948;28;20065;-77
2023/07/14 09:30:28;;;;;;;1.77;0.60;;;;;;;28.68;38.22;100901.50;4975057;28;20058;-78
2023/07/14 09:33:16;;;;;;;1.33;0.60;;;;;;;28.65;36.47;100907.97;5021807;22;20072;-79
2023/07/14 09:36:02;;;;;;;1.80;0.85;;;;;;;28.64;36.81;100909.97;5016273;28;20048;-79
2023/07/14 09:38:57;;;;;;;2.17;1.00;;;;;;;28.62;35.97;100912.41;5037493;28;20048;-78
2023/07/14 09:41:42;;;;;;;4.57;0.60;;;;;;;28.61;38.13;100913.63;5010263;28;20041;-80
2023/07/14 09:44:28;;;;;;;3.90;0.95;;;;;;;28.61;40.42;100921.22;4992984;28;20418;-79
2023/07/14 09:47:13;;;;;;;4.30;0.50;;;;;;;28.59;39.13;100916.09;4993327;28;20065;-80
2023/07/14 09:49:59;;;;;;;7.07;0.95;;;;;;;28.58;37.82;100914.50;4993039;28;20061;-80
2023/07/14 09:52:54;;;;;;;15.48;1.02;;;;;;;28.57;38.33;100904.53;4991950;28;20045;-80
2023/07/14 09:55:52;;;;;;;1.33;0.77;;;;;;;28.60;36.70;100908.47;5012247;28;20415;-81
2023/07/14 09:58:37;;;;;;;5.72;0.70;;;;;;;28.60;36.28;100916.88;5008098;28;20061;-77
2023/07/14 10:01:22;;;;;;;2.40;0.80;;;;;;;28.61;37.63;100916.44;5008461;28;20073;-79
2023/07/14 10:04:13;;;;;;;4.03;0.90;;;;;;;28.61;36.55;100904.44;4999857;28;20538;-79
2023/07/14 10:07:27;;;;;;;1.85;0.88;;;;;;;28.63;37.38;100905.59;5012830;28;20045;-80
2023/07/14 10:10:15;;;;;;;8.60;0.85;;;;;;;28.64;38.55;100898.78;5009126;28;20058;-77
2023/07/14 10:13:15;;;;;;;4.28;1.10;;;;;;;28.73;35.89;100910.19;4991695;28;20503;-77
2023/07/14 10:16:07;;;;;;;4.95;1.48;;;;;;;28.71;37.73;100906.19;4990404;28;20053;-76
2023/07/14 10:18:58;;;;;;;5.88;1.63;;;;;;;28.75;37.43;100912.56;4998574;28;20065;-76
2023/07/14 10:21:55;;;;;;;3.58;1.08;;;;;;;28.72;38.31;100905.03;5003857;28;20049;-76
2023/07/14 10:24:59;;;;;;;2.88;0.70;;;;;;;28.66;38.72;100907.50;4994952;28;20419;-76
2023/07/14 10:28:05;;;;;;;7.20;1.67;;;;;;;28.65;36.86;100900.34;4987366;28;20045;-77
2023/07/14 10:30:56;;;;;;;5.78;0.63;;;;;;;28.69;36.75;100889.88;4991158;28;20041;-79
2023/07/14 10:33:54;;;;;;;4.40;0.65;;;;;;;28.70;37.04;100897.00;4984437;28;20038;-77
2023/07/14 10:36:39;;;;;;;2.80;1.13;;;;;;;28.65;37.96;100900.34;4988045;28;20042;-77
2023/07/14 10:39:35;;;;;;;11.35;1.23;;;;;;;28.71;37.55;100901.41;4999387;28;20073;-77
2023/07/14 10:42:25;;;;;;;1.75;1.08;;;;;;;28.75;36.34;100901.38;4987356;28;20420;-77
2023/07/14 10:45:14;;;;;;;23.58;2.60;;;;;;;28.77;35.90;100898.91;4983515;28;20404;-77
2023/07/14 10:48:03;;;;;;;3.17;1.30;;;;;;;28.77;38.23;100890.50;5001847;28;20529;-77
2023/07/14 10:50:58;;;;;;;1.98;0.60;;;;;;;28.75;37.03;100879.72;4989880;28;20041;-77
2023/07/14 10:53:57;;;;;;;2.85;0.70;;;;;;;28.75;35.91;100885.34;5000398;28;20057;-77
2023/07/14 10:57:13;;;;;;;3.30;0.77;;;;;;;28.73;38.42;100882.19;4989118;28;20042;-77
2023/07/14 11:00:19;;;;;;;3.30;0.70;;;;;;;28.71;36.99;100887.41;4997071;28;20049;-77
2023/07/14 11:03:39;;;;;;;1.77;0.75;;;;;;;28.77;36.71;100882.91;4991789;28;20041;-77
2023/07/14 11:06:29;;;;;;;3.17;1.40;;;;;;;28.77;37.84;100877.28;4996846;28;20073;-77
2023/07/14 11:09:16;;;;;;;4.20;1.25;;;;;;;28.74;39.11;100878.19;4993811;28;20114;-77
2023/07/14 11:12:22;;;;;;;2.20;0.52;;;;;;;28.72;39.31;100875.00;4991641;28;20053;-77
2023/07/14 11:15:15;;;;;;;4.53;0.85;;;;;;;28.65;39.24;100875.13;4991925;28;20061;-77
2023/07/14 11:18:27;;;;;;;3.22;0.70;;;;;;;28.74;38.19;100872.59;5005933;28;20053;-77
2023/07/14 11:21:45;;;;;;;2.15;0.68;;;;;;;28.76;39.37;100881.31;5004796;28;20050;-77
2023/07/14 11:24:38;;;;;;;5.13;0.80;;;;;;;28.69;39.61;100878.66;4987608;28;20049;-78
2023/07/14 11:27:35;;;;;;;3.95;1.48;;;;;;;28.64;39.42;100872.81;4995070;28;20069;-78
2023/07/14 11:30:27;;;;;;;1.10;0.75;;;;;;;28.72;38.70;100872.22;4990503;28;20046;-76
2023/07/14 11:33:25;;;;;;;0.88;0.60;;;;;;;29.41;35.24;100884.13;4986351;28;20458;-78
2023/07/14 11:36:44;;;;;;;0.90;0.60;;;;;;;29.50;37.29;100878.69;5002765;28;20046;-77
2023/07/14 11:39:40;;;;;;;6.95;1.52;;;;;;;29.34;36.24;100878.72;4989656;28;20058;-77
2023/07/14 11:42:36;;;;;;;8.57;1.13;;;;;;;29.64;36.82;100872.69;4994270;28;20426;-77
2023/07/14 11:45:24;;;;;;;2.67;0.65;;;;;;;30.07;34.82;100888.38;5008409;28;20049;-79
2023/07/14 11:48:25;;;;;;;2.85;0.68;;;;;;;29.98;34.86;100879.78;4994306;28;20049;-77
2023/07/14 11:51:18;;;;;;;2.40;0.68;;;;;;;30.34;34.51;100871.13;4994708;28;20050;-80
2023/07/14 11:54:17;;;;;;;6.10;1.00;;;;;;;30.35;35.25;100881.13;4973728;28;20068;-77
2023/07/14 11:57:07;;;;;;;17.80;1.45;;;;;;;30.33;34.88;100870.31;5012440;28;20045;-76
2023/07/14 12:00:18;;;;;;;6.10;1.42;;;;;;;30.31;33.34;100874.84;4999279;28;20038;-76
2023/07/14 12:03:03;;;;;;;1.77;0.82;;;;;;;30.34;33.50;100868.31;4996891;28;20045;-77
2023/07/14 12:06:20;;;;;;;2.60;0.52;;;;;;;30.32;33.40;100868.78;5002073;28;20612;-77
2023/07/14 12:09:05;;;;;;;7.38;0.90;;;;;;;30.03;35.53;100873.63;5021008;28;20684;-78
2023/07/14 12:11:57;;;;;;;4.90;0.70;;;;;;;30.04;34.75;100858.38;5004593;28;20057;-77
2023/07/14 12:14:48;;;;;;;4.32;1.10;;;;;;;30.05;34.25;100848.75;4987134;28;20042;-82
2023/07/14 12:17:36;;;;;;;1.27;0.68;;;;;;;29.84;35.04;100846.53;4998313;28;20510;-84
2023/07/14 12:20:34;;;;;;;6.70;1.27;;;;;;;29.87;34.35;100845.66;4997785;28;20053;-82
2023/07/14 12:23:27;;;;;;;2.25;0.75;;;;;;;30.32;33.60;100846.31;4998793;28;20057;-79
2023/07/14 12:26:38;;;;;;;2.20;0.80;;;;;;;30.57;33.49;100832.34;4994153;28;20046;-78
2023/07/14 12:29:23;;;;;;;2.15;0.73;;;;;;;30.16;35.02;100832.38;5000311;28;20045;-80
2023/07/14 12:32:19;;;;;;;33.22;8.23;;;;;;;30.42;33.63;100844.41;5017423;28;20053;-80
2023/07/14 12:35:11;;;;;;;124.22;25.60;;;;;;;30.45;34.10;100837.91;5019569;28;20065;-80
2023/07/14 12:38:17;;;;;;;10.65;2.72;;;;;;;30.56;33.17;100833.56;5003519;28;20046;-80
2023/07/14 12:41:03;;;;;;;12.75;4.50;;;;;;;30.53;33.59;100831.63;5003501;28;20423;-80
2023/07/14 12:43:54;;;;;;;8.30;2.05;;;;;;;30.69;34.06;100824.31;5002705;28;20374;-80
2023/07/14 12:46:39;;;;;;;3.50;0.70;;;;;;;30.86;32.93;100814.53;5004342;28;20053;-80
2023/07/14 12:49:28;;;;;;;8.52;1.83;;;;;;;30.69;33.65;100813.09;5005762;28;20049;-80
2023/07/14 12:52:25;;;;;;;3.90;1.00;;;;;;;30.72;33.72;100817.81;5003251;28;20053;-80
2023/07/14 12:55:20;;;;;;;3.15;1.63;;;;;;;30.50;32.51;100812.91;5002538;28;20065;-80
2023/07/14 12:58:07;;;;;;;;;;;;;;;30.52;33.15;100810.44;5002369;28;20061;-80
2023/07/14 13:00:56;;;;;;;2.03;0.88;;;;;;;30.72;32.71;100813.00;5021405;28;20382;-80
2023/07/14 13:03:41;;;;;;;2.20;0.80;;;;;;;30.57;33.07;100804.25;5003181;28;20046;-80
2023/07/14 13:06:26;;;;;;;5.78;1.73;;;;;;;30.46;34.83;100805.78;5004164;28;20053;-80
2023/07/14 13:09:25;;;;;;;3.63;1.38;;;;;;;30.39;33.94;100801.19;5003532;28;20126;-80